Columbia/McEntire ANGS, South Carolina
Current Conditions -  °F | °C
As of 7:58 PM on Sunday 21 Dec 2014 (Local Time) from KMMT Reporting Station
Light Rain Light Rain  
Wind Chill: 49°   Ceiling: 2400
Heat Index: 49°   Visibility: 7mi
Dew Point: 42°   Wind: 3mph
Humidity: 76%   Direction: NA
Pressure: 30.17"   Gusts: NA
Location:  33.91°N, 80.8°W
Report Text: KMMT 220058Z AUTO VRB03KT 7SM -RA OVC024 10/06 A3017 RMK AO2 RAB0028 OVC V BKN SLP220 P0000 T00950055
Loading
Personal Weather Stations






























Interactive Weather Map New forecast layout! Learn more

10-Day Weather Forecast

Advertisements
Track Severe Weather on mobile